<?xml version="1.0" encoding="UTF-8" standalone="no" ?>
<gpx xmlns="http://www.topografix.com/GPX/1/1" xmlns:xsi="http://www.w3.org/2001/XMLSchema-instance" xsi:schemaLocation="http://www.topografix.com/GPX/1/1 http://www.topografix.com/GPX/1/1/gpx.xsd" version="1.1" creator="VisuGPX - https://www.visugpx.com">
  <metadata>
    <name>Suède</name>
  </metadata>
  <trk>
    <name><![CDATA[Tour d'Europe: étape 082]]></name>
    <trkseg>
      <trkpt lat="68.21952" lon="19.70796">
        <ele>411.959119</ele>
        <time>2020-09-18T10:15:12.634Z</time>
      </trkpt>
      <trkpt lat="68.21868" lon="19.7114">
        <ele>421.462115</ele>
        <time>2020-09-18T10:17:59.615Z</time>
      </trkpt>
      <trkpt lat="68.21822" lon="19.71124">
        <ele>424.914318</ele>
        <time>2020-09-18T10:21:14.642Z</time>
      </trkpt>
      <trkpt lat="68.22028" lon="19.71295">
        <ele>402.704327</ele>
        <time>2020-09-18T10:22:19.642Z</time>
      </trkpt>
      <trkpt lat="68.21912" lon="19.71777">
        <ele>398.010034</ele>
        <time>2020-09-18T10:23:10.627Z</time>
      </trkpt>
      <trkpt lat="68.21825" lon="19.72313">
        <ele>401.797791</ele>
        <time>2020-09-18T10:24:00.652Z</time>
      </trkpt>
      <trkpt lat="68.21787" lon="19.72853">
        <ele>410.693538</ele>
        <time>2020-09-18T10:25:07.656Z</time>
      </trkpt>
      <trkpt lat="68.21705" lon="19.7341">
        <ele>420.259607</ele>
        <time>2020-09-18T10:26:30.635Z</time>
      </trkpt>
      <trkpt lat="68.21572" lon="19.73877">
        <ele>423.718875</ele>
        <time>2020-09-18T10:27:34.618Z</time>
      </trkpt>
      <trkpt lat="68.21426" lon="19.74264">
        <ele>424.342669</ele>
        <time>2020-09-18T10:28:14.636Z</time>
      </trkpt>
      <trkpt lat="68.21253" lon="19.74625">
        <ele>427.955025</ele>
        <time>2020-09-18T10:28:59.623Z</time>
      </trkpt>
      <trkpt lat="68.21068" lon="19.74925">
        <ele>435.142923</ele>
        <time>2020-09-18T10:29:59.625Z</time>
      </trkpt>
      <trkpt lat="68.20864" lon="19.75191">
        <ele>438.365188</ele>
        <time>2020-09-18T10:30:59.615Z</time>
      </trkpt>
      <trkpt lat="68.2064" lon="19.75413">
        <ele>440.401914</ele>
        <time>2020-09-18T10:32:02.616Z</time>
      </trkpt>
      <trkpt lat="68.20424" lon="19.75575">
        <ele>444.845631</ele>
        <time>2020-09-18T10:33:02.624Z</time>
      </trkpt>
      <trkpt lat="68.20206" lon="19.75728">
        <ele>447.453975</ele>
        <time>2020-09-18T10:34:02.624Z</time>
      </trkpt>
      <trkpt lat="68.19992" lon="19.75967">
        <ele>445.9717</ele>
        <time>2020-09-18T10:34:47.630Z</time>
      </trkpt>
      <trkpt lat="68.1981" lon="19.76256">
        <ele>447.477272</ele>
        <time>2020-09-18T10:35:27.635Z</time>
      </trkpt>
      <trkpt lat="68.19643" lon="19.7662">
        <ele>449.703644</ele>
        <time>2020-09-18T10:36:15.623Z</time>
      </trkpt>
      <trkpt lat="68.19476" lon="19.77113">
        <ele>452.584754</ele>
        <time>2020-09-18T10:37:15.633Z</time>
      </trkpt>
      <trkpt lat="68.19342" lon="19.77539">
        <ele>454.296482</ele>
        <time>2020-09-18T10:38:01.625Z</time>
      </trkpt>
      <trkpt lat="68.19203" lon="19.77924">
        <ele>456.364277</ele>
        <time>2020-09-18T10:38:45.619Z</time>
      </trkpt>
      <trkpt lat="68.19025" lon="19.78341">
        <ele>460.693655</ele>
        <time>2020-09-18T10:39:38.644Z</time>
      </trkpt>
      <trkpt lat="68.18842" lon="19.78695">
        <ele>465.790063</ele>
        <time>2020-09-18T10:40:37.623Z</time>
      </trkpt>
      <trkpt lat="68.18658" lon="19.78998">
        <ele>470.200652</ele>
        <time>2020-09-18T10:41:37.678Z</time>
      </trkpt>
      <trkpt lat="68.1848" lon="19.79262">
        <ele>471.475357</ele>
        <time>2020-09-18T10:42:19.624Z</time>
      </trkpt>
      <trkpt lat="68.18314" lon="19.79606">
        <ele>474.141885</ele>
        <time>2020-09-18T10:42:59.660Z</time>
      </trkpt>
      <trkpt lat="68.18185" lon="19.80008">
        <ele>475.798401</ele>
        <time>2020-09-18T10:43:41.639Z</time>
      </trkpt>
      <trkpt lat="68.18002" lon="19.8047">
        <ele>480.614019</ele>
        <time>2020-09-18T10:44:42.657Z</time>
      </trkpt>
      <trkpt lat="68.17791" lon="19.80708">
        <ele>481.336432</ele>
        <time>2020-09-18T10:45:22.637Z</time>
      </trkpt>
      <trkpt lat="68.17551" lon="19.80797">
        <ele>477.507712</ele>
        <time>2020-09-18T10:46:02.637Z</time>
      </trkpt>
      <trkpt lat="68.17318" lon="19.80697">
        <ele>476.103953</ele>
        <time>2020-09-18T10:46:44.616Z</time>
      </trkpt>
      <trkpt lat="68.17125" lon="19.80424">
        <ele>473.207165</ele>
        <time>2020-09-18T10:47:24.658Z</time>
      </trkpt>
      <trkpt lat="68.16948" lon="19.79932">
        <ele>468.020716</ele>
        <time>2020-09-18T10:48:04.621Z</time>
      </trkpt>
      <trkpt lat="68.16829" lon="19.79386">
        <ele>467.351906</ele>
        <time>2020-09-18T10:48:48.634Z</time>
      </trkpt>
      <trkpt lat="68.16721" lon="19.78904">
        <ele>471.479223</ele>
        <time>2020-09-18T10:49:48.643Z</time>
      </trkpt>
      <trkpt lat="68.16572" lon="19.78472">
        <ele>474.749338</ele>
        <time>2020-09-18T10:50:48.624Z</time>
      </trkpt>
      <trkpt lat="68.1639" lon="19.78146">
        <ele>476.790397</ele>
        <time>2020-09-18T10:51:37.623Z</time>
      </trkpt>
      <trkpt lat="68.16195" lon="19.77958">
        <ele>481.27998</ele>
        <time>2020-09-18T10:52:25.624Z</time>
      </trkpt>
      <trkpt lat="68.15995" lon="19.77826">
        <ele>489.654292</ele>
        <time>2020-09-18T10:53:42.673Z</time>
      </trkpt>
      <trkpt lat="68.15788" lon="19.77727">
        <ele>497.606785</ele>
        <time>2020-09-18T10:55:15.657Z</time>
      </trkpt>
      <trkpt lat="68.15587" lon="19.7766">
        <ele>503.840621</ele>
        <time>2020-09-18T10:56:32.641Z</time>
      </trkpt>
      <trkpt lat="68.15381" lon="19.77628">
        <ele>508.767063</ele>
        <time>2020-09-18T10:57:41.633Z</time>
      </trkpt>
      <trkpt lat="68.15152" lon="19.77715">
        <ele>514.33218</ele>
        <time>2020-09-18T10:59:03.631Z</time>
      </trkpt>
      <trkpt lat="68.14966" lon="19.77935">
        <ele>517.102007</ele>
        <time>2020-09-18T11:00:05.662Z</time>
      </trkpt>
      <trkpt lat="68.14794" lon="19.78261">
        <ele>518.146814</ele>
        <time>2020-09-18T11:00:52.623Z</time>
      </trkpt>
      <trkpt lat="68.14618" lon="19.78772">
        <ele>513.493937</ele>
        <time>2020-09-18T11:01:34.638Z</time>
      </trkpt>
      <trkpt lat="68.14456" lon="19.79301">
        <ele>512.214861</ele>
        <time>2020-09-18T11:02:14.682Z</time>
      </trkpt>
      <trkpt lat="68.14309" lon="19.7978">
        <ele>512.216359</ele>
        <time>2020-09-18T11:02:54.668Z</time>
      </trkpt>
      <trkpt lat="68.14169" lon="19.80206">
        <ele>514.412694</ele>
        <time>2020-09-18T11:03:36.643Z</time>
      </trkpt>
      <trkpt lat="68.13982" lon="19.80602">
        <ele>518.457106</ele>
        <time>2020-09-18T11:04:33.639Z</time>
      </trkpt>
      <trkpt lat="68.13763" lon="19.8088">
        <ele>521.948617</ele>
        <time>2020-09-18T11:05:33.643Z</time>
      </trkpt>
      <trkpt lat="68.1355" lon="19.81009">
        <ele>523.508565</ele>
        <time>2020-09-18T11:06:20.625Z</time>
      </trkpt>
      <trkpt lat="68.13351" lon="19.81045">
        <ele>523.828266</ele>
        <time>2020-09-18T11:07:00.647Z</time>
      </trkpt>
      <trkpt lat="68.13123" lon="19.81079">
        <ele>522.400265</ele>
        <time>2020-09-18T11:07:42.629Z</time>
      </trkpt>
      <trkpt lat="68.12916" lon="19.81107">
        <ele>522.729952</ele>
        <time>2020-09-18T11:08:22.640Z</time>
      </trkpt>
      <trkpt lat="68.12703" lon="19.81186">
        <ele>522.321246</ele>
        <time>2020-09-18T11:09:02.633Z</time>
      </trkpt>
      <trkpt lat="68.12491" lon="19.81368">
        <ele>523.309937</ele>
        <time>2020-09-18T11:09:44.684Z</time>
      </trkpt>
      <trkpt lat="68.123" lon="19.81636">
        <ele>523.514739</ele>
        <time>2020-09-18T11:10:24.658Z</time>
      </trkpt>
      <trkpt lat="68.12126" lon="19.8194">
        <ele>524.116356</ele>
        <time>2020-09-18T11:11:04.677Z</time>
      </trkpt>
      <trkpt lat="68.11945" lon="19.82246">
        <ele>525.516154</ele>
        <time>2020-09-18T11:11:46.633Z</time>
      </trkpt>
      <trkpt lat="68.11764" lon="19.82536">
        <ele>526.32857</ele>
        <time>2020-09-18T11:12:26.659Z</time>
      </trkpt>
      <trkpt lat="68.11557" lon="19.82842">
        <ele>525.239936</ele>
        <time>2020-09-18T11:13:06.640Z</time>
      </trkpt>
      <trkpt lat="68.11292" lon="19.83199">
        <ele>522.108134</ele>
        <time>2020-09-18T11:13:48.632Z</time>
      </trkpt>
      <trkpt lat="68.11055" lon="19.83476">
        <ele>519.638692</ele>
        <time>2020-09-18T11:14:28.658Z</time>
      </trkpt>
      <trkpt lat="68.10854" lon="19.83682">
        <ele>521.76965</ele>
        <time>2020-09-18T11:15:08.629Z</time>
      </trkpt>
      <trkpt lat="68.10656" lon="19.83864">
        <ele>524.272769</ele>
        <time>2020-09-18T11:15:50.639Z</time>
      </trkpt>
      <trkpt lat="68.10437" lon="19.84032">
        <ele>524.027418</ele>
        <time>2020-09-18T11:16:30.644Z</time>
      </trkpt>
      <trkpt lat="68.10214" lon="19.84134">
        <ele>524.126172</ele>
        <time>2020-09-18T11:17:10.641Z</time>
      </trkpt>
      <trkpt lat="68.10011" lon="19.84167">
        <ele>526.82229</ele>
        <time>2020-09-18T11:17:52.646Z</time>
      </trkpt>
      <trkpt lat="68.098" lon="19.84147">
        <ele>525.446704</ele>
        <time>2020-09-18T11:18:32.626Z</time>
      </trkpt>
      <trkpt lat="68.09566" lon="19.8408">
        <ele>521.795322</ele>
        <time>2020-09-18T11:19:12.630Z</time>
      </trkpt>
      <trkpt lat="68.09345" lon="19.83987">
        <ele>521.017573</ele>
        <time>2020-09-18T11:19:54.660Z</time>
      </trkpt>
      <trkpt lat="68.09162" lon="19.83872">
        <ele>522.106646</ele>
        <time>2020-09-18T11:20:34.643Z</time>
      </trkpt>
      <trkpt lat="68.08966" lon="19.83729">
        <ele>520.177097</ele>
        <time>2020-09-18T11:21:14.637Z</time>
      </trkpt>
      <trkpt lat="68.08763" lon="19.83563">
        <ele>515.925591</ele>
        <time>2020-09-18T11:21:56.642Z</time>
      </trkpt>
      <trkpt lat="68.08572" lon="19.83441">
        <ele>514.99973</ele>
        <time>2020-09-18T11:22:36.652Z</time>
      </trkpt>
      <trkpt lat="68.08381" lon="19.83364">
        <ele>516.98368</ele>
        <time>2020-09-18T11:23:16.643Z</time>
      </trkpt>
      <trkpt lat="68.08175" lon="19.83324">
        <ele>518.524286</ele>
        <time>2020-09-18T11:23:58.663Z</time>
      </trkpt>
      <trkpt lat="68.07981" lon="19.83322">
        <ele>519.107489</ele>
        <time>2020-09-18T11:24:38.675Z</time>
      </trkpt>
      <trkpt lat="68.07782" lon="19.83345">
        <ele>518.772181</ele>
        <time>2020-09-18T11:25:18.639Z</time>
      </trkpt>
      <trkpt lat="68.07568" lon="19.83301">
        <ele>518.931727</ele>
        <time>2020-09-18T11:26:00.642Z</time>
      </trkpt>
      <trkpt lat="68.07378" lon="19.83158">
        <ele>516.775344</ele>
        <time>2020-09-18T11:26:40.640Z</time>
      </trkpt>
      <trkpt lat="68.07202" lon="19.82949">
        <ele>517.537662</ele>
        <time>2020-09-18T11:27:20.701Z</time>
      </trkpt>
      <trkpt lat="68.07009" lon="19.82742">
        <ele>518.197954</ele>
        <time>2020-09-18T11:28:02.637Z</time>
      </trkpt>
      <trkpt lat="68.06821" lon="19.82598">
        <ele>516.633022</ele>
        <time>2020-09-18T11:28:42.634Z</time>
      </trkpt>
      <trkpt lat="68.06623" lon="19.82504">
        <ele>516.957379</ele>
        <time>2020-09-18T11:29:22.663Z</time>
      </trkpt>
      <trkpt lat="68.06413" lon="19.82469">
        <ele>520.392601</ele>
        <time>2020-09-18T11:30:06.634Z</time>
      </trkpt>
      <trkpt lat="68.06181" lon="19.82496">
        <ele>520.669455</ele>
        <time>2020-09-18T11:30:59.657Z</time>
      </trkpt>
      <trkpt lat="68.05978" lon="19.82572">
        <ele>518.589692</ele>
        <time>2020-09-18T11:31:40.634Z</time>
      </trkpt>
      <trkpt lat="68.05765" lon="19.82691">
        <ele>518.220884</ele>
        <time>2020-09-18T11:32:22.681Z</time>
      </trkpt>
      <trkpt lat="68.05565" lon="19.82808">
        <ele>518.191846</ele>
        <time>2020-09-18T11:33:06.669Z</time>
      </trkpt>
      <trkpt lat="68.05346" lon="19.82924">
        <ele>519.460086</ele>
        <time>2020-09-18T11:33:56.638Z</time>
      </trkpt>
      <trkpt lat="68.05093" lon="19.83018">
        <ele>520.931526</ele>
        <time>2020-09-18T11:34:58.633Z</time>
      </trkpt>
      <trkpt lat="68.04873" lon="19.83052">
        <ele>523.277635</ele>
        <time>2020-09-18T11:35:58.676Z</time>
      </trkpt>
      <trkpt lat="68.04646" lon="19.83039">
        <ele>522.468457</ele>
        <time>2020-09-18T11:36:50.627Z</time>
      </trkpt>
      <trkpt lat="68.04394" lon="19.83001">
        <ele>518.75432</ele>
        <time>2020-09-18T11:37:32.637Z</time>
      </trkpt>
      <trkpt lat="68.04153" lon="19.83053">
        <ele>516.180311</ele>
        <time>2020-09-18T11:38:12.630Z</time>
      </trkpt>
      <trkpt lat="68.03934" lon="19.83164">
        <ele>517.157314</ele>
        <time>2020-09-18T11:38:52.644Z</time>
      </trkpt>
      <trkpt lat="68.03721" lon="19.83297">
        <ele>516.5719</ele>
        <time>2020-09-18T11:39:34.628Z</time>
      </trkpt>
      <trkpt lat="68.03527" lon="19.83423">
        <ele>515.709209</ele>
        <time>2020-09-18T11:40:14.682Z</time>
      </trkpt>
      <trkpt lat="68.03341" lon="19.8354">
        <ele>515.819926</ele>
        <time>2020-09-18T11:40:54.687Z</time>
      </trkpt>
      <trkpt lat="68.03141" lon="19.83652">
        <ele>515.104926</ele>
        <time>2020-09-18T11:41:36.646Z</time>
      </trkpt>
      <trkpt lat="68.02927" lon="19.83743">
        <ele>513.716044</ele>
        <time>2020-09-18T11:42:16.655Z</time>
      </trkpt>
      <trkpt lat="68.02703" lon="19.83777">
        <ele>510.018727</ele>
        <time>2020-09-18T11:42:56.654Z</time>
      </trkpt>
      <trkpt lat="68.02447" lon="19.83752">
        <ele>505.359434</ele>
        <time>2020-09-18T11:43:38.683Z</time>
      </trkpt>
      <trkpt lat="68.02223" lon="19.83733">
        <ele>503.46547</ele>
        <time>2020-09-18T11:44:18.638Z</time>
      </trkpt>
      <trkpt lat="68.02004" lon="19.83763">
        <ele>505.133648</ele>
        <time>2020-09-18T11:45:00.630Z</time>
      </trkpt>
      <trkpt lat="68.01793" lon="19.83837">
        <ele>504.136858</ele>
        <time>2020-09-18T11:45:40.644Z</time>
      </trkpt>
      <trkpt lat="68.01546" lon="19.83981">
        <ele>499.798503</ele>
        <time>2020-09-18T11:46:20.631Z</time>
      </trkpt>
      <trkpt lat="68.01312" lon="19.8416">
        <ele>495.678083</ele>
        <time>2020-09-18T11:47:02.673Z</time>
      </trkpt>
      <trkpt lat="68.0111" lon="19.84357">
        <ele>499.506889</ele>
        <time>2020-09-18T11:47:55.661Z</time>
      </trkpt>
      <trkpt lat="68.00907" lon="19.8459">
        <ele>502.555705</ele>
        <time>2020-09-18T11:48:55.645Z</time>
      </trkpt>
      <trkpt lat="68.00714" lon="19.84847">
        <ele>501.828799</ele>
        <time>2020-09-18T11:49:41.664Z</time>
      </trkpt>
      <trkpt lat="68.00546" lon="19.85105">
        <ele>501.777875</ele>
        <time>2020-09-18T11:50:22.658Z</time>
      </trkpt>
      <trkpt lat="68.00386" lon="19.85388">
        <ele>501.704095</ele>
        <time>2020-09-18T11:51:02.675Z</time>
      </trkpt>
      <trkpt lat="68.00207" lon="19.85742">
        <ele>500.450636</ele>
        <time>2020-09-18T11:51:44.634Z</time>
      </trkpt>
      <trkpt lat="68.00008" lon="19.8619">
        <ele>498.038627</ele>
        <time>2020-09-18T11:52:24.674Z</time>
      </trkpt>
      <trkpt lat="67.99833" lon="19.86648">
        <ele>497.299562</ele>
        <time>2020-09-18T11:53:04.674Z</time>
      </trkpt>
      <trkpt lat="67.99673" lon="19.87127">
        <ele>497.44795</ele>
        <time>2020-09-18T11:53:46.659Z</time>
      </trkpt>
      <trkpt lat="67.99543" lon="19.87671">
        <ele>496.615486</ele>
        <time>2020-09-18T11:54:26.683Z</time>
      </trkpt>
      <trkpt lat="67.99471" lon="19.8834">
        <ele>493.446503</ele>
        <time>2020-09-18T11:55:06.642Z</time>
      </trkpt>
      <trkpt lat="67.99472" lon="19.89032">
        <ele>490.585966</ele>
        <time>2020-09-18T11:55:48.677Z</time>
      </trkpt>
      <trkpt lat="67.99449" lon="19.89509">
        <ele>492.70187</ele>
        <time>2020-09-18T12:09:47.978Z</time>
      </trkpt>
      <trkpt lat="67.99479" lon="19.89994">
        <ele>492.893132</ele>
        <time>2020-09-18T12:10:45.000Z</time>
      </trkpt>
      <trkpt lat="67.99419" lon="19.9054">
        <ele>491.484575</ele>
        <time>2020-09-18T12:11:28.025Z</time>
      </trkpt>
      <trkpt lat="67.99308" lon="19.91085">
        <ele>491.438426</ele>
        <time>2020-09-18T12:12:07.996Z</time>
      </trkpt>
      <trkpt lat="67.99193" lon="19.9164">
        <ele>491.93092</ele>
        <time>2020-09-18T12:12:47.988Z</time>
      </trkpt>
      <trkpt lat="67.99062" lon="19.92266">
        <ele>491.652865</ele>
        <time>2020-09-18T12:13:29.990Z</time>
      </trkpt>
      <trkpt lat="67.98946" lon="19.9283">
        <ele>491.323698</ele>
        <time>2020-09-18T12:14:09.986Z</time>
      </trkpt>
      <trkpt lat="67.98807" lon="19.9337">
        <ele>488.677773</ele>
        <time>2020-09-18T12:14:49.999Z</time>
      </trkpt>
      <trkpt lat="67.98645" lon="19.93797">
        <ele>489.4466</ele>
        <time>2020-09-18T12:15:34.032Z</time>
      </trkpt>
      <trkpt lat="67.98439" lon="19.94163">
        <ele>491.012366</ele>
        <time>2020-09-18T12:16:34.023Z</time>
      </trkpt>
      <trkpt lat="67.98245" lon="19.94383">
        <ele>488.05987</ele>
        <time>2020-09-18T12:17:16.011Z</time>
      </trkpt>
      <trkpt lat="67.98029" lon="19.94586">
        <ele>486.467228</ele>
        <time>2020-09-18T12:17:58.014Z</time>
      </trkpt>
      <trkpt lat="67.97837" lon="19.94813">
        <ele>488.550595</ele>
        <time>2020-09-18T12:18:37.988Z</time>
      </trkpt>
      <trkpt lat="67.9766" lon="19.95062">
        <ele>490.748039</ele>
        <time>2020-09-18T12:19:18.004Z</time>
      </trkpt>
      <trkpt lat="67.97482" lon="19.95329">
        <ele>492.599906</ele>
        <time>2020-09-18T12:19:59.989Z</time>
      </trkpt>
      <trkpt lat="67.97317" lon="19.95601">
        <ele>494.996356</ele>
        <time>2020-09-18T12:20:39.994Z</time>
      </trkpt>
      <trkpt lat="67.97121" lon="19.95955">
        <ele>496.299431</ele>
        <time>2020-09-18T12:21:33.985Z</time>
      </trkpt>
      <trkpt lat="67.96919" lon="19.96356">
        <ele>499.840781</ele>
        <time>2020-09-18T12:22:34.982Z</time>
      </trkpt>
      <trkpt lat="67.96754" lon="19.96718">
        <ele>504.994735</ele>
        <time>2020-09-18T12:23:34.987Z</time>
      </trkpt>
      <trkpt lat="67.96596" lon="19.97196">
        <ele>504.02594</ele>
        <time>2020-09-18T12:24:20.989Z</time>
      </trkpt>
      <trkpt lat="67.96439" lon="19.97745">
        <ele>503.047496</ele>
        <time>2020-09-18T12:25:03.009Z</time>
      </trkpt>
      <trkpt lat="67.96295" lon="19.98209">
        <ele>507.045434</ele>
        <time>2020-09-18T12:25:52.983Z</time>
      </trkpt>
      <trkpt lat="67.96186" lon="19.98744">
        <ele>506.01956</ele>
        <time>2020-09-18T12:26:32.985Z</time>
      </trkpt>
      <trkpt lat="67.9607" lon="19.99434">
        <ele>502.441006</ele>
        <time>2020-09-18T12:27:15.029Z</time>
      </trkpt>
      <trkpt lat="67.95917" lon="19.99974">
        <ele>495.437369</ele>
        <time>2020-09-18T12:27:44.989Z</time>
      </trkpt>
      <trkpt lat="67.95729" lon="20.00433">
        <ele>489.759067</ele>
        <time>2020-09-18T12:28:18.981Z</time>
      </trkpt>
      <trkpt lat="67.95556" lon="20.00899">
        <ele>491.200628</ele>
        <time>2020-09-18T12:29:01.015Z</time>
      </trkpt>
      <trkpt lat="67.95407" lon="20.0139">
        <ele>493.596045</ele>
        <time>2020-09-18T12:29:40.998Z</time>
      </trkpt>
      <trkpt lat="67.95276" lon="20.01881">
        <ele>495.319572</ele>
        <time>2020-09-18T12:30:21.021Z</time>
      </trkpt>
      <trkpt lat="67.9514" lon="20.02477">
        <ele>495.077414</ele>
        <time>2020-09-18T12:31:02.995Z</time>
      </trkpt>
      <trkpt lat="67.94976" lon="20.03229">
        <ele>489.292228</ele>
        <time>2020-09-18T12:31:42.997Z</time>
      </trkpt>
      <trkpt lat="67.94799" lon="20.03934">
        <ele>484.33918</ele>
        <time>2020-09-18T12:32:22.983Z</time>
      </trkpt>
      <trkpt lat="67.94636" lon="20.04477">
        <ele>484.907288</ele>
        <time>2020-09-18T12:33:04.991Z</time>
      </trkpt>
      <trkpt lat="67.94488" lon="20.04898">
        <ele>485.245964</ele>
        <time>2020-09-18T12:33:44.979Z</time>
      </trkpt>
      <trkpt lat="67.94307" lon="20.05291">
        <ele>489.416426</ele>
        <time>2020-09-18T12:34:38.994Z</time>
      </trkpt>
      <trkpt lat="67.94105" lon="20.05598">
        <ele>491.10918</ele>
        <time>2020-09-18T12:35:28.012Z</time>
      </trkpt>
      <trkpt lat="67.93881" lon="20.05844">
        <ele>488.681539</ele>
        <time>2020-09-18T12:36:07.987Z</time>
      </trkpt>
      <trkpt lat="67.93683" lon="20.06057">
        <ele>488.580845</ele>
        <time>2020-09-18T12:36:48.012Z</time>
      </trkpt>
      <trkpt lat="67.9349" lon="20.06312">
        <ele>489.660576</ele>
        <time>2020-09-18T12:37:30.004Z</time>
      </trkpt>
      <trkpt lat="67.93298" lon="20.06629">
        <ele>487.686766</ele>
        <time>2020-09-18T12:38:10.002Z</time>
      </trkpt>
      <trkpt lat="67.93094" lon="20.07059">
        <ele>485.327056</ele>
        <time>2020-09-18T12:38:52.011Z</time>
      </trkpt>
      <trkpt lat="67.92909" lon="20.07477">
        <ele>483.616539</ele>
        <time>2020-09-18T12:39:31.996Z</time>
      </trkpt>
      <trkpt lat="67.92717" lon="20.0786">
        <ele>481.786025</ele>
        <time>2020-09-18T12:40:11.996Z</time>
      </trkpt>
      <trkpt lat="67.92487" lon="20.08207">
        <ele>482.166088</ele>
        <time>2020-09-18T12:40:53.991Z</time>
      </trkpt>
      <trkpt lat="67.92256" lon="20.08495">
        <ele>480.867823</ele>
        <time>2020-09-18T12:41:34.032Z</time>
      </trkpt>
      <trkpt lat="67.92049" lon="20.08757">
        <ele>482.539343</ele>
        <time>2020-09-18T12:42:14.000Z</time>
      </trkpt>
      <trkpt lat="67.91853" lon="20.09004">
        <ele>483.428899</ele>
        <time>2020-09-18T12:42:56.022Z</time>
      </trkpt>
      <trkpt lat="67.91679" lon="20.09256">
        <ele>486.22366</ele>
        <time>2020-09-18T12:43:35.999Z</time>
      </trkpt>
      <trkpt lat="67.91508" lon="20.09536">
        <ele>488.98166</ele>
        <time>2020-09-18T12:44:16.016Z</time>
      </trkpt>
      <trkpt lat="67.91326" lon="20.09876">
        <ele>489.858469</ele>
        <time>2020-09-18T12:44:58.061Z</time>
      </trkpt>
      <trkpt lat="67.91142" lon="20.10245">
        <ele>488.289162</ele>
        <time>2020-09-18T12:45:38.043Z</time>
      </trkpt>
      <trkpt lat="67.9098" lon="20.10539">
        <ele>489.242316</ele>
        <time>2020-09-18T12:46:18.012Z</time>
      </trkpt>
      <trkpt lat="67.90802" lon="20.10805">
        <ele>491.973245</ele>
        <time>2020-09-18T12:47:02.006Z</time>
      </trkpt>
      <trkpt lat="67.90628" lon="20.1103">
        <ele>491.90478</ele>
        <time>2020-09-18T12:47:41.991Z</time>
      </trkpt>
      <trkpt lat="67.90446" lon="20.11257">
        <ele>492.852055</ele>
        <time>2020-09-18T12:48:22.001Z</time>
      </trkpt>
      <trkpt lat="67.90262" lon="20.11524">
        <ele>495.702853</ele>
        <time>2020-09-18T12:49:04.023Z</time>
      </trkpt>
      <trkpt lat="67.90065" lon="20.11856">
        <ele>499.138256</ele>
        <time>2020-09-18T12:49:59.998Z</time>
      </trkpt>
      <trkpt lat="67.89889" lon="20.1218">
        <ele>500.605711</ele>
        <time>2020-09-18T12:50:49.015Z</time>
      </trkpt>
      <trkpt lat="67.89729" lon="20.1248">
        <ele>502.204031</ele>
        <time>2020-09-18T12:51:31.044Z</time>
      </trkpt>
      <trkpt lat="67.89566" lon="20.12778">
        <ele>504.89499</ele>
        <time>2020-09-18T12:52:14.001Z</time>
      </trkpt>
      <trkpt lat="67.89336" lon="20.1304">
        <ele>506.898186</ele>
        <time>2020-09-18T12:53:14.007Z</time>
      </trkpt>
      <trkpt lat="67.89099" lon="20.13151">
        <ele>508.120024</ele>
        <time>2020-09-18T12:54:17.026Z</time>
      </trkpt>
      <trkpt lat="67.88859" lon="20.13337">
        <ele>509.340109</ele>
        <time>2020-09-18T12:55:16.011Z</time>
      </trkpt>
      <trkpt lat="67.88641" lon="20.13637">
        <ele>513.996412</ele>
        <time>2020-09-18T12:56:16.036Z</time>
      </trkpt>
      <trkpt lat="67.88439" lon="20.14026">
        <ele>516.785703</ele>
        <time>2020-09-18T12:57:19.004Z</time>
      </trkpt>
      <trkpt lat="67.88268" lon="20.14502">
        <ele>518.545667</ele>
        <time>2020-09-18T12:58:18.997Z</time>
      </trkpt>
      <trkpt lat="67.8818" lon="20.15092">
        <ele>523.486001</ele>
        <time>2020-09-18T12:59:14.996Z</time>
      </trkpt>
      <trkpt lat="67.88105" lon="20.15647">
        <ele>526.749019</ele>
        <time>2020-09-18T13:00:18.029Z</time>
      </trkpt>
      <trkpt lat="67.8799" lon="20.16106">
        <ele>528.73209</ele>
        <time>2020-09-18T13:01:18.018Z</time>
      </trkpt>
      <trkpt lat="67.87853" lon="20.16593">
        <ele>530.799465</ele>
        <time>2020-09-18T13:02:18.003Z</time>
      </trkpt>
      <trkpt lat="67.87759" lon="20.17168">
        <ele>536.825963</ele>
        <time>2020-09-18T13:03:21.014Z</time>
      </trkpt>
      <trkpt lat="67.8773" lon="20.17768">
        <ele>537.214938</ele>
        <time>2020-09-18T13:04:14.993Z</time>
      </trkpt>
      <trkpt lat="67.87736" lon="20.18305">
        <ele>536.222917</ele>
        <time>2020-09-18T13:04:55.018Z</time>
      </trkpt>
      <trkpt lat="67.87667" lon="20.18795">
        <ele>537.566571</ele>
        <time>2020-09-18T13:05:38.010Z</time>
      </trkpt>
      <trkpt lat="67.87562" lon="20.19279">
        <ele>541.2044</ele>
        <time>2020-09-18T13:06:28.008Z</time>
      </trkpt>
      <trkpt lat="67.87354" lon="20.19267">
        <ele>533.649224</ele>
        <time>2020-09-18T13:07:08.025Z</time>
      </trkpt>
      <trkpt lat="67.87159" lon="20.19552">
        <ele>532.341635</ele>
        <time>2020-09-18T13:07:58.050Z</time>
      </trkpt>
      <trkpt lat="67.86953" lon="20.19841">
        <ele>534.941437</ele>
        <time>2020-09-18T13:08:52.003Z</time>
      </trkpt>
      <trkpt lat="67.86749" lon="20.20055">
        <ele>541.03539</ele>
        <time>2020-09-18T13:09:41.998Z</time>
      </trkpt>
      <trkpt lat="67.86644" lon="20.20398">
        <ele>542.709484</ele>
        <time>2020-09-18T13:10:53.012Z</time>
      </trkpt>
      <trkpt lat="67.86504" lon="20.20673">
        <ele>551.080302</ele>
        <time>2020-09-18T13:12:22.000Z</time>
      </trkpt>
      <trkpt lat="67.86352" lon="20.20975">
        <ele>556.780314</ele>
        <time>2020-09-18T13:13:40.019Z</time>
      </trkpt>
      <trkpt lat="67.86317" lon="20.2149">
        <ele>564.275559</ele>
        <time>2020-09-18T13:15:06.035Z</time>
      </trkpt>
      <trkpt lat="67.86129" lon="20.2169">
        <ele>575.406964</ele>
        <time>2020-09-18T13:16:31.026Z</time>
      </trkpt>
      <trkpt lat="67.85997" lon="20.22102">
        <ele>580.869624</ele>
        <time>2020-09-18T13:17:39.997Z</time>
      </trkpt>
      <trkpt lat="67.85879" lon="20.2251">
        <ele>585.178711</ele>
        <time>2020-09-18T13:19:11.030Z</time>
      </trkpt>
      <trkpt lat="67.8577" lon="20.22926">
        <ele>610.935484</ele>
        <time>2020-09-18T13:21:12.003Z</time>
      </trkpt>
      <trkpt lat="67.85584" lon="20.23258">
        <ele>602.523362</ele>
        <time>2020-09-18T13:22:14.032Z</time>
      </trkpt>
      <trkpt lat="67.85359" lon="20.23769">
        <ele>591.275177</ele>
        <time>2020-09-18T13:22:58.007Z</time>
      </trkpt>
      <trkpt lat="67.85262" lon="20.24354">
        <ele>572.789135</ele>
        <time>2020-09-18T13:23:43.011Z</time>
      </trkpt>
      <trkpt lat="67.85195" lon="20.24927">
        <ele>558.589722</ele>
        <time>2020-09-18T13:24:30.052Z</time>
      </trkpt>
      <trkpt lat="67.85192" lon="20.25447">
        <ele>552.939627</ele>
        <time>2020-09-18T13:25:25.017Z</time>
      </trkpt>
    </trkseg>
  </trk>
</gpx>